Weather observations for the past three days for
Stafford, Stafford Regional Airport
| Date | Time (edt) | Wind (kph) | Vis. (km) | Weather | Sky Cond. | Temperature (ºC) | Relative Humidity | Wind Chill (°C) | Heat Index (°C) | Pressure | Precipitation (cm) | ||||||
|---|---|---|---|---|---|---|---|---|---|---|---|---|---|---|---|---|---|
| Air | Dwpt | 6 hour | altimeter (cm) | sea level (mb) | 1 hr | 3 hr | 6 hr | ||||||||||
| Max. | Min. | ||||||||||||||||
| 07 | 14:55 | E 7 | 16.09 | Mostly Cloudy | SCT022 SCT034 BKN070 | 14.9 | 3 | 45% | 75.82 | 0.0 | |||||||
| 07 | 14:35 | E 11 | 16.09 | Light Rain | SCT019 SCT033 OVC070 | 14.3 | 3.6 | 49% | 75.79 | 0.0 | |||||||
| 07 | 14:15 | SE 6 | 16.09 | Overcast | SCT055 OVC070 | 14.4 | 2.2 | 44% | 75.84 | 0.0 | |||||||
| 07 | 13:55 | NE 7 | 16.09 | Overcast | BKN055 OVC070 | 14.4 | 2.9 | 14.7 | 12.5 | 46% | 75.87 | 0.0 | 0.05 | ||||
| 07 | 13:35 | NE 9 | 16.09 | Overcast | OVC070 | 14.4 | 2.9 | 46% | 75.87 | 0.0 | |||||||
| 07 | 13:15 | N 9 | 16.09 | Overcast | SCT015 SCT046 OVC070 | 14 | 3.7 | 50% | 75.87 | 0.0 | |||||||
| 07 | 12:55 | N 6 | 16.09 | Overcast | BKN050 OVC070 | 13.3 | 5.3 | 59% | 75.9 | 0.0 | |||||||
| 07 | 12:35 | Calm | 16.09 | Light Drizzle | OVC050 | 13 | 5.2 | 59% | 75.95 | 0.0 | |||||||
| 07 | 12:15 | Calm | 16.09 | Light Rain | OVC050 | 13 | 6.2 | 64% | 75.92 | 0.0 | |||||||
| 07 | 11:55 | N 6 | 16.09 | Overcast | OVC048 | 12.6 | 5.9 | 64% | 75.95 | 0.0 | 0.05 | ||||||
| 07 | 11:35 | N 7 | 16.09 | Rain | OVC048 | 13.1 | 4.7 | 57% | 75.9 | 0.0 | |||||||
| 07 | 11:15 | N 9 | 16.09 | Overcast | OVC048 | 13.6 | 4.6 | 55% | 75.95 | 0.0 | |||||||
| 07 | 10:55 | N 9 | 16.09 | Overcast | OVC048 | 13.5 | 5.8 | 60% | 75.95 | 0.0 | |||||||
| 07 | 10:35 | N 7 | 16.09 | Overcast | OVC048 | 13.3 | 6.1 | 62% | 75.97 | 0.0 | |||||||
| 07 | 10:15 | N 9 | 16.09 | Overcast | OVC046 | 13.4 | 7 | 65% | 75.97 | 0.0 | |||||||
| 07 | 09:55 | N 9 | 16.09 | Overcast | OVC046 | 13.6 | 7.3 | 66% | 75.97 | 0.0 | |||||||
| 07 | 09:35 | N 7 | 16.09 | Overcast | OVC046 | 14 | 7.5 | 65% | 76 | 0.0 | |||||||
| 07 | 09:15 | N 9 | 16.09 | Overcast | OVC046 | 13.7 | 7.1 | 65% | 76 | 0.0 | |||||||
| 07 | 08:55 | N 11 | 16.09 | Overcast | OVC044 | 13.6 | 7.5 | 67% | 76 | 0.0 | |||||||
| 07 | 08:35 | N 9 | 16.09 | Overcast | OVC042 | 13.6 | 8.8 | 73% | 75.97 | 0.0 | |||||||
| 07 | 08:15 | N 7 | 16.09 | Overcast | OVC040 | 13.5 | 9.4 | 76% | 75.95 | 0.0 | |||||||
| 07 | 07:55 | NE 9 | 16.09 | Overcast | OVC038 | 13.1 | 9.5 | 14.5 | 12.5 | 79% | 75.95 | 0.0 | 0.05 | ||||
| 07 | 07:35 | Calm | 16.09 | Overcast | OVC038 | 13 | 9.7 | 81% | 75.95 | 0.0 | |||||||
| 07 | 07:15 | Calm | 16.09 | Overcast | OVC038 | 12.7 | 9.7 | 82% | 75.95 | 0.0 | |||||||
| 07 | 06:55 | N 7 | 16.09 | Overcast | OVC038 | 12.5 | 9.6 | 83% | 75.9 | 0.0 | |||||||
| 07 | 06:35 | N 9 | 16.09 | Overcast | OVC038 | 12.7 | 9.6 | 82% | 75.9 | 0.0 | |||||||
| 07 | 06:15 | Calm | 16.09 | Overcast | OVC038 | 12.6 | 9.6 | 82% | 75.87 | 0.0 | |||||||
| 07 | 05:55 | Calm | 16.09 | Overcast | OVC036 | 12.8 | 9.6 | 81% | 75.87 | 0.0 | |||||||
| 07 | 05:35 | N 7 | 16.09 | Overcast | OVC036 | 13 | 9.4 | 79% | 75.87 | 0.0 | |||||||
| 07 | 05:15 | N 6 | 16.09 | Overcast | OVC034 | 13 | 9.6 | 80% | 75.84 | 0.0 | |||||||
| 07 | 04:55 | N 9 | 16.09 | Overcast | OVC034 | 13 | 10 | 82% | 75.82 | 0.0 | 0.05 | ||||||
| 07 | 04:35 | N 7 | 16.09 | Overcast | OVC032 | 13.2 | 10.2 | 82% | 75.84 | 0.0 | |||||||
| 07 | 04:15 | N 9 | 16.09 | Overcast | OVC032 | 13.3 | 11.1 | 87% | 75.87 | 0.0 | |||||||
| 07 | 03:55 | N 7 | 16.09 | Light Rain | OVC032 | 13.5 | 11.3 | 87% | 75.82 | 0.0 | |||||||
| 07 | 03:35 | N 6 | 16.09 | Overcast | OVC032 | 13.6 | 11.5 | 87% | 75.82 | 0.0 | |||||||
| 07 | 03:15 | N 7 | 16.09 | Overcast | OVC032 | 13.6 | 11.5 | 87% | 75.82 | 0.0 | |||||||
| 07 | 02:55 | N 7 | 16.09 | Overcast | OVC030 | 13.8 | 11.4 | 86% | 75.79 | 0.0 | 0.05 | ||||||
| 07 | 02:35 | N 11 | 16.09 | Light Drizzle | OVC028 | 14 | 11.5 | 85% | 75.82 | 0.0 | 0.05 | ||||||
| 07 | 02:15 | NW 15 | 16.09 | Light Rain | OVC026 | 14.3 | 12.2 | 87% | 75.79 | 0.0 | 0.05 | ||||||
| 07 | 01:55 | N 15 | 16.09 | Light Rain | SCT028 SCT080 OVC110 | 14.5 | 12.4 | 21 | 14.5 | 87% | 75.72 | 0.0 | 0.05 | 0.38 | |||
| 07 | 00:35 | N 11 | 8.05 | Thunderstorm Heavy Rain in Vicinity | SCT016 OVC022 | 17 | 14.3 | 84% | 75.74 | 0.0 | 0.28 | ||||||
| 07 | 00:15 | N 7 | 16.09 | Thunderstorm Light Rain in Vicinity | OVC022 | 18.8 | 14.9 | 78% | 75.72 | 0.0 | |||||||
| 06 | 23:55 | Calm | 16.09 | Light Drizzle | OVC024 | 19.2 | 15.7 | 80% | 75.77 | 0.0 | |||||||
| 06 | 23:35 | NW 6 | 16.09 | Overcast | OVC026 | 18.8 | 16 | 84% | 75.74 | 0.0 | |||||||
| 06 | 23:15 | Calm | 16.09 | Overcast | BKN028 OVC037 | 18.8 | 16 | 84% | 75.74 | 0.0 | |||||||
| 06 | 22:55 | Calm | 16.09 | Overcast | SCT028 BKN037 OVC048 | 18.8 | 15.9 | 83% | 75.74 | 0.0 | |||||||
| 06 | 22:35 | NW 6 | 16.09 | Mostly Cloudy | BKN048 | 17.8 | 15.5 | 87% | 75.72 | 0.0 | |||||||
| 06 | 22:15 | Calm | 16.09 | Overcast | OVC050 | 18.8 | 15.8 | 83% | 75.69 | 0.0 | |||||||
| 06 | 21:55 | Calm | 16.09 | Mostly Cloudy | SCT050 BKN065 | 18.8 | 15.6 | 82% | 75.69 | 0.0 | |||||||
| 06 | 21:35 | Calm | 16.09 | Fair | CLR | 18.8 | 15.5 | 81% | 75.69 | 0.0 | |||||||
| 06 | 21:15 | Calm | 16.09 | Fair | CLR | 20 | 15.3 | 74% | 75.72 | 0.0 | |||||||
| 06 | 20:55 | SW 6 | 16.09 | Fair | CLR | 20.1 | 15.5 | 75% | 75.69 | 0.0 | |||||||
| 06 | 20:35 | S 7 | 16.09 | Fair | CLR | 20.2 | 15.5 | 75% | 75.67 | 0.0 | |||||||
| 06 | 20:15 | S 7 | 16.09 | Partly Cloudy | SCT060 | 20.8 | 15.5 | 72% | 75.67 | 0.0 | |||||||
| 06 | 19:55 | SW 11 | 16.09 | Partly Cloudy | SCT060 | 21 | 15.4 | 22.7 | 19.3 | 70% | 75.67 | 0.0 | |||||
| 06 | 19:35 | SW 7 | 16.09 | Partly Cloudy | SCT060 SCT080 | 21.5 | 15.2 | 67% | 75.62 | 0.0 | |||||||
| 06 | 19:15 | SW 11 | 16.09 | Partly Cloudy | SCT080 | 21.5 | 15.1 | 67% | 75.64 | 0.0 | |||||||
| 06 | 18:55 | S 9 | 16.09 | Partly Cloudy | SCT080 | 21.7 | 15 | 66% | 75.64 | 0.0 | |||||||
| 06 | 18:35 | S 11 | 16.09 | Fair | CLR | 22 | 14.9 | 64% | 75.64 | 0.0 | |||||||
| 06 | 18:15 | SW 13 | 16.09 | Fair | CLR | 22.7 | 15.1 | 62% | 75.64 | 0.0 | |||||||
| 06 | 17:55 | SW 11 | 16.09 | Partly Cloudy | SCT027 | 22.4 | 15.2 | 64% | 75.67 | 0.0 | |||||||
| 06 | 17:35 | SW 13 G 31 | 16.09 | Partly Cloudy | SCT027 | 22.5 | 14.9 | 62% | 75.67 | 0.0 | |||||||
| 06 | 17:15 | SW 11 G 31 | 16.09 | Fair | CLR | 22 | 14.6 | 63% | 75.67 | 0.0 | |||||||
| 06 | 16:55 | S 17 G 33 | 16.09 | Fair | CLR | 21.6 | 14.5 | 64% | 75.62 | 0.0 | |||||||
| 06 | 16:35 | S 22 G 31 | 16.09 | Fair | CLR | 21.4 | 14.5 | 65% | 75.64 | 0.0 | |||||||
| 06 | 16:15 | S 19 G 31 | 16.09 | Fair | CLR | 21.1 | 14.4 | 66% | 75.64 | 0.0 | |||||||
| 06 | 15:55 | S 11 | 16.09 | Partly Cloudy | SCT021 SCT055 | 20.7 | 14.9 | 70% | 75.67 | 0.0 | |||||||
| 06 | 15:35 | S 9 G 28 | 16.09 | Partly Cloudy | SCT019 SCT055 | 19.8 | 14.5 | 72% | 75.67 | 0.0 | |||||||
| 06 | 15:15 | SW 17 G 28 | 16.09 | Mostly Cloudy | BKN019 | 19.8 | 14.5 | 72% | 75.69 | 0.0 | |||||||
| 06 | 14:55 | S 11 G 31 | 16.09 | Mostly Cloudy | BKN019 | 19.9 | 14.5 | 71% | 75.72 | 0.0 | |||||||
| 06 | 14:35 | S 17 G 26 | 16.09 | Mostly Cloudy | BKN019 | 19.8 | 14.6 | 72% | 75.72 | 0.0 | |||||||
| 06 | 14:15 | SW 13 | 16.09 | Partly Cloudy | SCT019 | 19.8 | 14.5 | 72% | 75.74 | 0.0 | |||||||
| 06 | 13:55 | S 15 G 28 | 16.09 | Mostly Cloudy | SCT019 BKN100 | 19.7 | 14.4 | 19.8 | 17 | 72% | 75.72 | 0.0 | 0.38 | ||||
| 06 | 13:35 | SW 15 G 30 | 16.09 | Mostly Cloudy | BKN019 | 19.2 | 14.5 | 74% | 75.77 | 0.0 | |||||||
| 06 | 13:15 | SW 19 G 30 | 16.09 | Mostly Cloudy | BKN019 BKN024 | 18.8 | 14.2 | 75% | 75.77 | 0.0 | |||||||
| 06 | 12:55 | SW 19 G 33 | 16.09 | Mostly Cloudy | BKN019 BKN024 | 18.8 | 14.2 | 75% | 75.74 | 0.0 | |||||||
| 06 | 12:35 | S 17 G 31 | 16.09 | Mostly Cloudy | BKN021 BKN026 BKN046 | 18.8 | 14.5 | 76% | 75.77 | 0.0 | |||||||
| 06 | 12:15 | SW 15 G 35 | 16.09 | Light Drizzle | BKN021 BKN048 OVC100 | 17.8 | 14.5 | 81% | 75.82 | 0.0 | |||||||
| 06 | 11:55 | S 15 G 28 | 16.09 | Light Rain | SCT016 BKN060 OVC100 | 17.3 | 14.6 | 84% | 75.79 | 0.0 | 0.05 | ||||||
| 06 | 11:35 | S 22 G 30 | 16.09 | Light Rain | BKN018 BKN041 OVC100 | 17.2 | 14.8 | 86% | 75.79 | 0.0 | 0.05 | ||||||
| 06 | 11:15 | SW 13 | 16.09 | Light Rain | BKN016 BKN030 OVC090 | 17.1 | 15.1 | 88% | 75.79 | 0.0 | |||||||
| 06 | 10:55 | S 15 | 11.27 | Rain | SCT018 BKN070 OVC090 | 17 | 14.8 | 87% | 75.82 | 0.0 | 0.23 | 0.33 | |||||
| 06 | 10:35 | S 13 | 8.05 | Light Rain | SCT018 BKN055 OVC080 | 17 | 14.5 | 85% | 75.84 | 0.0 | 0.18 | ||||||
| 06 | 10:15 | S 11 | 16.09 | Rain | BKN060 OVC075 | 17.1 | 13.9 | 82% | 75.84 | 0.0 | |||||||
| 06 | 09:55 | S 9 | 16.09 | Overcast | BKN065 OVC095 | 17 | 13.7 | 81% | 75.84 | 0.0 | 0.1 | ||||||
| 06 | 09:35 | S 11 | 16.09 | Light Rain | SCT075 BKN095 OVC110 | 17 | 13.5 | 80% | 75.79 | 0.0 | 0.1 | ||||||
| 06 | 09:15 | S 11 | 16.09 | Light Drizzle | SCT065 OVC110 | 17.4 | 13 | 76% | 75.84 | 0.0 | |||||||
| 06 | 08:55 | S 13 | 16.09 | Light Rain | OVC110 | 17.2 | 12.7 | 75% | 75.82 | 0.0 | |||||||
| 06 | 08:35 | S 11 | 16.09 | Light Rain | OVC110 | 17.7 | 12.6 | 72% | 75.79 | 0.0 | |||||||
| 06 | 08:15 | S 7 | 16.09 | Rain | OVC110 | 17.7 | 12.6 | 72% | 75.79 | 0.0 | |||||||
| 06 | 07:55 | S 11 | 16.09 | Drizzle | SCT090 OVC110 | 18.4 | 12.1 | 21.4 | 18.4 | 67% | 75.79 | 0.0 | |||||
| 06 | 07:35 | SW 17 G 33 | 16.09 | Light Drizzle | SCT090 OVC110 | 19.1 | 11.4 | 61% | 75.82 | 0.0 | |||||||
| 06 | 07:15 | S 19 G 31 | 16.09 | Mostly Cloudy | BKN110 | 19.1 | 11.5 | 62% | 75.82 | 0.0 | |||||||
| 06 | 06:55 | S 19 G 28 | 16.09 | Partly Cloudy | SCT120 | 19 | 11.5 | 62% | 75.79 | 0.0 | |||||||
| 06 | 06:35 | S 13 G 26 | 16.09 | Fair | CLR | 19 | 11.5 | 62% | 75.79 | 0.0 | |||||||
| 06 | 06:15 | S 17 G 30 | 16.09 | Partly Cloudy | SCT100 | 19 | 11.4 | 62% | 75.79 | 0.0 | |||||||
| 06 | 05:55 | S 15 G 28 | 16.09 | Partly Cloudy | SCT100 | 19 | 11.3 | 61% | 75.79 | 0.0 | |||||||
| 06 | 05:35 | S 11 G 26 | 16.09 | Fair | CLR | 19.1 | 11.1 | 60% | 75.79 | 0.0 | |||||||
| 06 | 05:15 | S 15 | 16.09 | Fair | CLR | 19 | 11 | 60% | 75.79 | 0.0 | |||||||
| 06 | 04:55 | S 15 G 28 | 16.09 | Fair | CLR | 19 | 11 | 60% | 75.79 | 0.0 | |||||||
| 06 | 04:35 | S 17 | 16.09 | Fair | CLR | 19 | 10.8 | 59% | 75.79 | 0.0 | |||||||
| 06 | 04:15 | S 20 G 31 | 16.09 | Fair | CLR | 19.4 | 10.7 | 57% | 75.79 | 0.0 | |||||||
| 06 | 03:55 | S 17 G 28 | 16.09 | Fair | CLR | 19.8 | 10.8 | 56% | 75.79 | 0.0 | |||||||
| 06 | 03:35 | S 15 G 26 | 16.09 | Fair | CLR | 19.8 | 10.5 | 55% | 75.79 | 0.0 | |||||||
| 06 | 03:15 | S 15 G 31 | 16.09 | Fair | CLR | 20.2 | 10.6 | 54% | 75.79 | 0.0 | |||||||
| 06 | 02:55 | S 13 G 31 | 16.09 | Fair | CLR | 20.8 | 10.5 | 52% | 75.79 | 0.0 | |||||||
| 06 | 02:35 | S 15 | 16.09 | Fair | CLR | 20.8 | 10.2 | 51% | 75.82 | 0.0 | |||||||
| 06 | 01:55 | S 15 G 33 | 16.09 | Fair | CLR | 21.4 | 10 | 25.6 | 21.4 | 48% | 75.82 | 0.0 | |||||
| 06 | 01:35 | S 13 G 30 | 16.09 | Fair | CLR | 21.6 | 9.8 | 47% | 75.84 | 0.0 | |||||||
| 06 | 01:15 | S 15 G 31 | 16.09 | Fair | CLR | 22 | 9.5 | 45% | 75.84 | 0.0 | |||||||
| 06 | 00:55 | S 17 G 30 | 16.09 | Fair | CLR | 22.2 | 9.5 | 45% | 75.84 | 0.0 | |||||||
| 06 | 00:35 | S 19 G 30 | 16.09 | Fair | CLR | 22.7 | 9.5 | 43% | 75.84 | 0.0 | |||||||
| 06 | 00:15 | S 26 G 37 | 16.09 | Fair | CLR | 22.8 | 8.9 | 41% | 75.84 | 0.0 | |||||||
| 05 | 23:55 | S 24 G 33 | 16.09 | Fair | CLR | 22.9 | 8.7 | 40% | 75.87 | 0.0 | |||||||
| 05 | 23:35 | S 20 G 31 | 16.09 | Fair | CLR | 22.9 | 8.6 | 40% | 75.87 | 0.0 | |||||||
| 05 | 23:15 | S 17 G 26 | 16.09 | Fair | CLR | 22.7 | 8.4 | 40% | 75.87 | 0.0 | |||||||
| 05 | 22:55 | S 11 | 16.09 | Fair | CLR | 22.7 | 8.1 | 39% | 75.84 | 0.0 | |||||||
| 05 | 22:35 | S 13 | 16.09 | Fair | CLR | 22.9 | 7.5 | 37% | 75.84 | 0.0 | |||||||
| 05 | 22:15 | S 11 | 16.09 | Fair | CLR | 23.3 | 7 | 35% | 75.87 | 0.0 | |||||||
| 05 | 21:55 | S 15 | 16.09 | Fair | CLR | 23.6 | 6.5 | 33% | 75.87 | 0.0 | |||||||
| 05 | 21:35 | S 13 | 16.09 | Fair | CLR | 23.8 | 5.6 | 31% | 75.87 | 0.0 | |||||||
| 05 | 21:15 | S 15 | 16.09 | Fair | CLR | 24.6 | 5.5 | 29% | 25 | 75.84 | 0.0 | ||||||
| 05 | 20:55 | S 13 | 16.09 | Fair | CLR | 24.7 | 4.8 | 28% | 25 | 75.82 | 0.0 | ||||||
| 05 | 20:35 | S 15 | 16.09 | Fair | CLR | 25.1 | 3.9 | 25% | 25 | 75.79 | 0.0 | ||||||
| 05 | 20:15 | S 15 | 16.09 | Fair | CLR | 25.5 | 3.1 | 23% | 25 | 75.79 | 0.0 | ||||||
| 05 | 19:55 | S 13 | 16.09 | Fair | CLR | 25.6 | 2.4 | 30.2 | 25.6 | 22% | 25 | 75.77 | 0.0 | ||||
| 05 | 19:35 | S 13 | 16.09 | Fair | CLR | 26.6 | 2 | 20% | 26 | 75.79 | 0.0 | ||||||
| 05 | 19:15 | SW 24 G 37 | 16.09 | Fair | CLR | 27 | 0.8 | 18% | 26 | 75.77 | 0.0 | ||||||
| 05 | 18:55 | S 24 G 43 | 16.09 | Fair | CLR | 27.5 | -0.5 | 16% | 26 | 75.77 | 0.0 | ||||||
| 05 | 18:35 | S 30 G 43 | 16.09 | Fair | CLR | 28.6 | -0.5 | 15% | 27 | 75.74 | 0.0 | ||||||
| 05 | 18:15 | SW 22 G 35 | 16.09 | Fair | CLR | 28.6 | 0.2 | 16% | 27 | 75.77 | 0.0 | ||||||
| 05 | 17:55 | S 15 G 41 | 16.09 | Fair | CLR | 28 | -1.8 | 14% | 27 | 75.77 | 0.0 | ||||||
| 05 | 17:35 | SW 26 G 48 | 16.09 | Fair | CLR | 28.3 | -2.5 | 13% | 27 | 75.74 | 0.0 | ||||||
| 05 | 17:15 | S 22 G 50 | 16.09 | Fair | CLR | 29.3 | -2.8 | 12% | 28 | 75.77 | 0.0 | ||||||
| 05 | 16:55 | SW 20 G 39 | 16.09 | Fair | CLR | 29.1 | -2 | 13% | 27 | 75.74 | 0.0 | ||||||
| 05 | 16:35 | S 30 G 48 | 16.09 | Fair | CLR | 29.6 | -2.8 | 12% | 28 | 75.74 | 0.0 | ||||||
| 05 | 16:15 | SW 30 G 43 | 16.09 | Fair | CLR | 29.6 | -1.5 | 13% | 28 | 75.74 | 0.0 | ||||||
| 05 | 15:55 | S 28 G 46 | 16.09 | Fair | CLR | 29.8 | -1.6 | 13% | 28 | 75.77 | 0.0 | ||||||
| 05 | 15:35 | S 26 G 44 | 16.09 | Fair | CLR | 29.7 | -1.4 | 13% | 28 | 75.79 | 0.0 | ||||||
| 05 | 15:15 | SW 17 G 44 | 16.09 | Fair | CLR | 29.8 | -0.7 | 14% | 28 | 75.82 | 0.0 | ||||||
| 05 | 14:55 | S 19 G 37 | 16.09 | Fair | CLR | 29.9 | 0.2 | 15% | 28 | 75.84 | 0.0 | ||||||
| 05 | 14:35 | S 24 G 44 | 16.09 | Fair | CLR | 29.6 | 0.2 | 15% | 28 | 75.87 | 0.0 | ||||||
| 05 | 14:15 | SW 24 G 48 | 16.09 | Fair | CLR | 28.9 | 0.7 | 16% | 27 | 75.87 | 0.0 | ||||||
| 05 | 13:55 | S 28 G 43 | 16.09 | Fair | CLR | 28.7 | 1.5 | 29.2 | 17.8 | 17% | 27 | 75.9 | 0.0 | ||||
| 05 | 13:35 | S 22 G 43 | 16.09 | Fair | CLR | 28.8 | 2.7 | 19% | 27 | 75.9 | 0.0 | ||||||
| 05 | 13:15 | S 22 G 35 | 16.09 | Fair | CLR | 29.1 | 3.3 | 19% | 28 | 75.9 | 0.0 | ||||||
| 05 | 12:55 | SW 19 G 35 | 16.09 | Fair | CLR | 28 | 3.2 | 20% | 27 | 75.92 | 0.0 | ||||||
| 05 | 12:35 | S 17 G 30 | 16.09 | Fair | CLR | 27.7 | 4.5 | 23% | 27 | 75.97 | 0.0 | ||||||
| 05 | 12:15 | S 17 G 37 | 16.09 | Fair | CLR | 27 | 5.4 | 25% | 26 | 76 | 0.0 | ||||||
| 05 | 11:55 | S 17 G 26 | 16.09 | Fair | CLR | 26.7 | 5.4 | 26% | 26 | 76 | 0.0 | ||||||
| 05 | 11:35 | S 13 G 28 | 16.09 | Fair | CLR | 26.6 | 5.7 | 26% | 26 | 76 | 0.0 | ||||||
| 05 | 11:15 | S 17 | 16.09 | Fair | CLR | 25.9 | 6 | 28% | 26 | 76.02 | 0.0 | ||||||
| 05 | 10:55 | S 17 | 16.09 | Fair | CLR | 25.1 | 6.6 | 31% | 25 | 76.02 | 0.0 | ||||||
| 05 | 10:35 | S 7 | 16.09 | Fair | CLR | 24.1 | 6.5 | 32% | 25 | 76 | 0.0 | ||||||
| 05 | 10:15 | S 9 | 16.09 | Fair | CLR | 23.4 | 6.8 | 34% | 76.02 | 0.0 | |||||||
| 05 | 09:55 | S 15 | 16.09 | Fair | CLR | 22.7 | 6.8 | 36% | 76.02 | 0.0 | |||||||
| 05 | 09:35 | S 15 | 16.09 | Fair | CLR | 21.4 | 6.4 | 38% | 76 | 0.0 | |||||||
| 05 | 09:15 | S 11 | 16.09 | Fair | CLR | 20.7 | 6.6 | 40% | 76.02 | 0.0 | |||||||
| 05 | 08:55 | S 11 | 16.09 | Fair | CLR | 20 | 6.5 | 42% | 76.02 | 0.0 | |||||||
| 05 | 08:35 | SW 11 | 16.09 | Fair | CLR | 19.3 | 6.3 | 43% | 76.05 | 0.0 | |||||||
| 05 | 08:15 | S 9 | 16.09 | Fair | CLR | 18.8 | 6.8 | 46% | 76.02 | 0.0 | |||||||
| 05 | 07:55 | SW 13 | 16.09 | Fair | CLR | 18.1 | 6.4 | 18.2 | 17 | 47% | 76 | 0.0 | |||||
| 05 | 07:35 | S 9 | 16.09 | Fair | CLR | 18 | 6.5 | 47% | 75.97 | 0.0 | |||||||
| 05 | 07:15 | S 9 | 16.09 | Fair | CLR | 17.2 | 6.4 | 49% | 76 | 0.0 | |||||||
| 05 | 06:55 | S 7 | 16.09 | Fair | CLR | 17 | 6.1 | 49% | 75.97 | 0.0 | |||||||
| 05 | 06:35 | SW 9 | 16.09 | Fair | CLR | 17 | 6 | 49% | 75.97 | 0.0 | |||||||
| 05 | 06:15 | SW 11 | 16.09 | Fair | CLR | 17 | 6 | 49% | 75.95 | 0.0 | |||||||
| 05 | 05:55 | SW 11 | 16.09 | Fair | CLR | 17 | 5.7 | 48% | 75.92 | 0.0 | |||||||
| 05 | 05:35 | SW 9 | 16.09 | Fair | CLR | 17 | 5.6 | 47% | 75.92 | 0.0 | |||||||
| 05 | 05:15 | S 9 | 16.09 | Fair | CLR | 17 | 5.6 | 47% | 75.92 | 0.0 | |||||||
| 05 | 04:55 | SW 9 | 16.09 | Fair | CLR | 17 | 5.4 | 47% | 75.92 | 0.0 | |||||||
| 05 | 04:35 | S 6 | 16.09 | Fair | CLR | 17 | 5.3 | 46% | 75.92 | 0.0 | |||||||
| 05 | 04:15 | S 7 | 16.09 | Fair | CLR | 17 | 5.3 | 46% | 75.9 | 0.0 | |||||||
| 05 | 03:55 | S 7 | 16.09 | Fair | CLR | 17.2 | 5.3 | 46% | 75.9 | 0.0 | |||||||
| 05 | 03:35 | S 11 | 16.09 | Fair | CLR | 17.5 | 5.3 | 45% | 75.92 | 0.0 | |||||||
| 05 | 03:15 | S 11 | 16.09 | Fair | CLR | 17.8 | 5.5 | 45% | 75.9 | 0.0 | |||||||
| 05 | 02:55 | S 11 | 16.09 | Fair | CLR | 17.8 | 5.5 | 45% | 75.9 | 0.0 | |||||||
| 05 | 02:35 | S 9 | 16.09 | Fair | CLR | 17 | 6 | 49% | 75.87 | 0.0 | |||||||
| 05 | 02:15 | S 9 | 16.09 | Fair | CLR | 17.4 | 6 | 47% | 75.84 | 0.0 | |||||||
| 05 | 01:55 | S 7 | 16.09 | Fair | CLR | 17.7 | 6 | 23.7 | 17.7 | 46% | 75.87 | 0.0 | |||||
| 05 | 01:35 | S 7 | 16.09 | Fair | CLR | 18 | 5.8 | 45% | 75.84 | 0.0 | |||||||
| 05 | 01:15 | SW 7 | 16.09 | Fair | CLR | 18 | 5.8 | 45% | 75.84 | 0.0 | |||||||
| 05 | 00:55 | S 7 | 16.09 | Fair | CLR | 18.1 | 6 | 45% | 75.84 | 0.0 | |||||||
| 05 | 00:35 | S 6 | 16.09 | Fair | CLR | 18 | 6.2 | 46% | 75.87 | 0.0 | |||||||
| 05 | 00:15 | SW 7 | 16.09 | Fair | CLR | 18.8 | 6.1 | 44% | 75.84 | 0.0 | |||||||
| 04 | 23:55 | SW 6 | 16.09 | Fair | CLR | 18.9 | 6.1 | 43% | 75.84 | 0.0 | |||||||
| 04 | 23:35 | S 6 | 16.09 | Fair | CLR | 19.3 | 6 | 42% | 75.84 | 0.0 | |||||||
| 04 | 23:15 | SW 6 | 16.09 | Fair | CLR | 19.3 | 5.9 | 42% | 75.87 | 0.0 | |||||||
| 04 | 22:35 | S 6 | 16.09 | Fair | CLR | 19.8 | 5.5 | 39% | 75.84 | 0.0 | |||||||
| 04 | 22:15 | SW 6 | 16.09 | Fair | CLR | 20.5 | 5 | 36% | 75.84 | 0.0 | |||||||
| 04 | 21:55 | Calm | 16.09 | Fair | CLR | 20.8 | 4.6 | 35% | 75.84 | 0.0 | |||||||
| 04 | 21:35 | S 6 | 16.09 | Fair | CLR | 21.2 | 4 | 32% | 75.84 | 0.0 | |||||||
| 04 | 21:15 | S 6 | 16.09 | Fair | CLR | 21.7 | 3.3 | 30% | 75.82 | 0.0 | |||||||
| 04 | 20:55 | S 9 | 16.09 | Fair | CLR | 22.1 | 2.6 | 28% | 75.82 | 0.0 | |||||||
| 04 | 20:35 | S 6 | 16.09 | Partly Cloudy | SCT100 SCT120 | 22.5 | 2.6 | 27% | 75.79 | 0.0 | |||||||
| 04 | 20:15 | S 9 | 16.09 | Mostly Cloudy | BKN100 BKN120 | 23.1 | 2.1 | 25% | 75.79 | 0.0 | |||||||
| 04 | 19:55 | S 11 | 16.09 | Overcast | BKN095 OVC110 | 23.7 | 2.4 | 26.7 | 23.7 | 25% | 75.79 | 0.0 | |||||
| 04 | 19:35 | SW 11 | 16.09 | Mostly Cloudy | BKN110 | 23.7 | 2.1 | 24% | 75.79 | 0.0 | |||||||
| 04 | 19:15 | S 13 | 16.09 | Partly Cloudy | SCT110 | 24 | 1.7 | 23% | 25 | 75.77 | 0.0 | ||||||
| 04 | 18:55 | S 11 | 16.09 | Fair | CLR | 24.7 | 1.8 | 22% | 25 | 75.77 | 0.0 | ||||||
| 04 | 18:35 | SW 17 G 30 | 16.09 | Fair | CLR | 25.1 | 1.2 | 21% | 25 | 75.77 | 0.0 | ||||||
| 04 | 18:15 | SW 20 G 30 | 16.09 | Fair | CLR | 25.5 | 1.4 | 21% | 25 | 75.77 | 0.0 | ||||||
| 04 | 17:55 | SW 17 G 26 | 16.09 | Fair | CLR | 25.5 | 0.9 | 20% | 25 | 75.79 | 0.0 | ||||||
| 04 | 17:35 | SW 17 G 28 | 16.09 | Fair | CLR | 25.8 | 0.3 | 19% | 25 | 75.77 | 0.0 | ||||||
| 04 | 17:15 | S 15 G 31 | 16.09 | Fair | CLR | 25.6 | 0 | 19% | 25 | 75.82 | 0.0 | ||||||
| 04 | 16:55 | S 17 G 26 | 16.09 | Fair | CLR | 26.1 | 0.6 | 19% | 26 | 75.79 | 0.0 | ||||||
| 04 | 16:35 | S 15 G 31 | 16.09 | Fair | CLR | 25.3 | 0.2 | 19% | 25 | 75.82 | 0.0 | ||||||
| 04 | 16:15 | S 19 G 35 | 16.09 | Fair | CLR | 25 | 0.5 | 20% | 25 | 75.84 | 0.0 | ||||||
| 04 | 15:55 | S 20 G 35 | 16.09 | Fair | CLR | 25.4 | -0.1 | 19% | 25 | 75.82 | 0.0 | ||||||
| 04 | 15:35 | SW 15 | 16.09 | Fair | CLR | 26.5 | -0.1 | 17% | 26 | 75.84 | 0.0 | ||||||
| 04 | 15:15 | SW 13 | 16.09 | Fair | CLR | 25.7 | -0.5 | 18% | 25 | 75.84 | 0.0 | ||||||
| Date | Time (edt) | Wind (kph) | Vis. (km) | Weather | Sky Cond. | Air | Dwpt | Max. | Min. | Relative Humidity | Wind Chill (°C) | Heat Index (°C) | altimeter (cm) | sea level (mb) | 1 hr | 3 hr | 6 hr |
| 6 hour | |||||||||||||||||
| Temperature (ºC) | Pressure | Precipitation (cm) | |||||||||||||||